createdAt,value
2018-10-03T00:00:05.963Z,20.80
2018-10-03T00:01:11.316Z,20.70
2018-10-03T00:02:17.441Z,20.70
2018-10-03T00:03:22.824Z,20.80
2018-10-03T00:04:28.118Z,20.70
2018-10-03T00:05:33.422Z,20.70
2018-10-03T00:06:38.715Z,20.80
2018-10-03T00:07:44.069Z,20.70
2018-10-03T00:08:49.380Z,20.80
2018-10-03T00:09:55.657Z,20.70
2018-10-03T00:11:01.016Z,20.70
2018-10-03T00:12:08.085Z,20.70
2018-10-03T00:13:13.520Z,20.70
2018-10-03T00:14:19.413Z,20.70
2018-10-03T00:15:24.824Z,20.70
2018-10-03T00:16:30.123Z,20.80
2018-10-03T00:17:35.490Z,20.80
2018-10-03T00:18:40.828Z,20.70
2018-10-03T00:19:46.317Z,20.70
2018-10-03T00:20:52.518Z,20.70
2018-10-03T00:21:58.065Z,20.80
2018-10-03T00:23:03.544Z,20.70
2018-10-03T00:24:09.689Z,20.70
2018-10-03T00:25:15.024Z,20.70
2018-10-03T00:26:20.522Z,20.80
2018-10-03T00:27:25.879Z,20.80
2018-10-03T00:28:32.120Z,20.70
2018-10-03T00:29:37.613Z,20.70
2018-10-03T00:30:42.909Z,20.80
2018-10-03T00:31:48.383Z,20.80
2018-10-03T00:32:53.737Z,20.70
2018-10-03T00:33:59.274Z,20.70
2018-10-03T00:35:05.531Z,20.80
2018-10-03T00:36:11.009Z,20.80
2018-10-03T00:37:17.310Z,20.70
2018-10-03T00:38:22.646Z,20.80
2018-10-03T00:39:28.908Z,20.80
2018-10-03T00:40:34.399Z,20.70
2018-10-03T00:41:39.776Z,20.70
2018-10-03T00:42:45.088Z,20.70
2018-10-03T00:43:51.325Z,20.70
2018-10-03T00:44:57.711Z,20.70
2018-10-03T00:46:03.044Z,20.70
2018-10-03T00:47:09.234Z,20.70
2018-10-03T00:48:14.624Z,20.70
2018-10-03T00:49:20.233Z,20.70
2018-10-03T00:50:25.679Z,20.70
2018-10-03T00:51:31.296Z,20.70
2018-10-03T00:52:37.555Z,20.70
2018-10-03T00:53:44.060Z,20.70
2018-10-03T00:54:49.345Z,20.70
2018-10-03T00:55:54.652Z,20.80
2018-10-03T00:57:00.019Z,20.80
2018-10-03T00:58:05.413Z,20.70
2018-10-03T00:59:10.996Z,20.70
2018-10-03T01:00:17.288Z,20.70
2018-10-03T01:01:22.741Z,20.70
2018-10-03T01:02:29.000Z,20.70
2018-10-03T01:03:34.328Z,20.70
2018-10-03T01:04:39.615Z,20.70
2018-10-03T01:05:44.973Z,20.70
2018-10-03T01:06:50.507Z,20.80
2018-10-03T01:07:55.879Z,20.80
2018-10-03T01:09:01.335Z,20.70
2018-10-03T01:10:06.700Z,20.80
2018-10-03T01:11:12.990Z,20.80
2018-10-03T01:12:18.554Z,20.70
2018-10-03T01:13:23.953Z,20.70
2018-10-03T01:14:29.317Z,20.70
2018-10-03T01:15:34.651Z,20.80
2018-10-03T01:16:40.044Z,20.70
2018-10-03T01:17:46.300Z,20.80
2018-10-03T01:18:51.706Z,20.70
2018-10-03T01:19:58.015Z,20.80
2018-10-03T01:21:03.563Z,20.80
2018-10-03T01:22:09.065Z,20.70
2018-10-03T01:23:14.547Z,20.80
2018-10-03T01:24:19.926Z,20.70
2018-10-03T01:25:25.440Z,20.80
2018-10-03T01:26:30.940Z,20.80
2018-10-03T01:27:36.289Z,20.70
2018-10-03T01:28:41.748Z,20.70
2018-10-03T01:29:47.090Z,20.70
2018-10-03T01:30:52.424Z,20.70
2018-10-03T01:31:58.672Z,20.70
2018-10-03T01:33:03.992Z,20.70
2018-10-03T01:34:09.372Z,20.80
2018-10-03T01:35:15.552Z,20.80
2018-10-03T01:36:20.851Z,20.70
2018-10-03T01:37:26.113Z,20.70
2018-10-03T01:38:31.561Z,20.70
2018-10-03T01:39:36.942Z,20.70
2018-10-03T01:40:42.382Z,20.80
2018-10-03T01:41:47.683Z,20.70
2018-10-03T01:42:53.066Z,20.70
2018-10-03T01:43:58.412Z,20.70
2018-10-03T01:45:03.837Z,20.70
2018-10-03T01:46:11.600Z,20.70
2018-10-03T01:47:17.855Z,20.70
2018-10-03T01:48:23.178Z,20.70
2018-10-03T01:49:28.498Z,20.70
2018-10-03T01:50:34.724Z,20.70
2018-10-03T01:51:40.895Z,20.70
2018-10-03T01:52:46.210Z,20.70
2018-10-03T01:53:52.363Z,20.70
2018-10-03T01:54:57.651Z,20.80
2018-10-03T01:56:03.434Z,20.70
2018-10-03T01:57:08.908Z,20.80
2018-10-03T01:58:14.993Z,20.70
2018-10-03T01:59:20.273Z,20.70
2018-10-03T02:00:25.531Z,20.80
2018-10-03T02:01:31.646Z,20.80
2018-10-03T02:02:37.078Z,20.70
2018-10-03T02:03:42.342Z,20.80
2018-10-03T02:04:47.635Z,20.70
2018-10-03T02:05:52.929Z,20.70
2018-10-03T02:06:58.403Z,20.70
2018-10-03T02:08:03.873Z,20.70
2018-10-03T02:09:09.519Z,20.70
2018-10-03T02:10:15.683Z,20.80
2018-10-03T02:11:21.160Z,20.70
2018-10-03T02:12:27.313Z,20.80
2018-10-03T02:13:33.477Z,20.70
2018-10-03T02:14:38.878Z,20.70
2018-10-03T02:15:44.206Z,20.80
2018-10-03T02:16:49.559Z,20.70
2018-10-03T02:17:54.995Z,20.70
2018-10-03T02:19:00.495Z,20.80
2018-10-03T02:20:05.970Z,20.80
2018-10-03T02:21:12.191Z,20.70
2018-10-03T02:22:17.731Z,20.80
2018-10-03T02:23:23.211Z,20.70
2018-10-03T02:24:28.578Z,20.70
2018-10-03T02:25:33.892Z,20.70
2018-10-03T02:26:39.163Z,20.80
2018-10-03T02:27:44.538Z,20.70
2018-10-03T02:28:49.970Z,20.70
2018-10-03T02:29:55.506Z,20.70
2018-10-03T02:31:00.817Z,20.80
2018-10-03T02:32:06.150Z,20.70
2018-10-03T02:33:12.589Z,20.80
2018-10-03T02:34:18.025Z,20.70
2018-10-03T02:35:23.369Z,20.70
2018-10-03T02:36:28.780Z,20.70
2018-10-03T02:37:34.117Z,20.70
2018-10-03T02:38:39.578Z,20.70
2018-10-03T02:39:44.888Z,20.70
2018-10-03T02:40:50.223Z,20.70
2018-10-03T02:41:55.483Z,20.80
2018-10-03T02:43:01.853Z,20.80
2018-10-03T02:44:07.171Z,20.70
2018-10-03T02:45:12.478Z,20.70
2018-10-03T02:46:17.944Z,20.80
2018-10-03T02:47:23.226Z,20.70
2018-10-03T02:48:28.514Z,20.70
2018-10-03T02:49:33.851Z,20.70
2018-10-03T02:50:39.248Z,20.70
2018-10-03T02:51:44.699Z,20.70
2018-10-03T02:52:50.932Z,20.80
2018-10-03T02:53:56.218Z,20.70
2018-10-03T02:55:02.422Z,20.80
2018-10-03T02:56:07.717Z,20.70
2018-10-03T02:57:13.892Z,20.70
2018-10-03T02:58:20.154Z,20.70
2018-10-03T02:59:25.565Z,20.70
2018-10-03T03:00:30.999Z,20.70
2018-10-03T03:01:36.493Z,20.70
2018-10-03T03:02:41.778Z,20.80
2018-10-03T03:03:47.991Z,20.70
2018-10-03T03:04:53.319Z,20.70
2018-10-03T03:05:58.655Z,20.70
2018-10-03T03:07:04.059Z,20.80
2018-10-03T03:08:09.466Z,20.70
2018-10-03T03:09:15.643Z,20.70
2018-10-03T03:10:20.894Z,20.70
2018-10-03T03:11:26.210Z,20.70
2018-10-03T03:12:31.741Z,20.80
2018-10-03T03:13:37.966Z,20.70
2018-10-03T03:14:44.153Z,20.70
2018-10-03T03:15:49.489Z,20.70
2018-10-03T03:16:55.705Z,20.70
2018-10-03T03:18:01.885Z,20.80
2018-10-03T03:19:08.077Z,20.80
2018-10-03T03:20:13.423Z,20.70
2018-10-03T03:21:19.563Z,20.70
2018-10-03T03:22:25.761Z,20.70
2018-10-03T03:23:31.081Z,20.80
2018-10-03T03:24:36.315Z,20.70
2018-10-03T03:25:41.749Z,20.70
2018-10-03T03:26:47.097Z,20.70
2018-10-03T03:27:52.409Z,20.70
2018-10-03T03:28:57.742Z,20.70
2018-10-03T03:30:04.235Z,20.70
2018-10-03T03:31:09.506Z,20.70
2018-10-03T03:32:14.931Z,20.70
2018-10-03T03:33:20.256Z,20.70
2018-10-03T03:34:26.427Z,20.70
2018-10-03T03:35:31.684Z,20.70
2018-10-03T03:36:36.948Z,20.70
2018-10-03T03:37:42.236Z,20.70
2018-10-03T03:38:47.551Z,20.70
2018-10-03T03:39:52.893Z,20.70
2018-10-03T03:40:58.235Z,20.70
2018-10-03T03:42:03.672Z,20.70
2018-10-03T03:43:08.977Z,20.70
2018-10-03T03:44:14.368Z,20.80
2018-10-03T03:45:19.641Z,20.70
2018-10-03T03:46:25.866Z,20.70
2018-10-03T03:47:32.129Z,20.70
2018-10-03T03:48:38.236Z,20.70
2018-10-03T03:49:43.653Z,20.70
2018-10-03T03:50:48.998Z,20.70
2018-10-03T03:51:55.140Z,20.80
2018-10-03T03:53:00.505Z,20.80
2018-10-03T03:54:05.922Z,20.70
2018-10-03T03:55:12.030Z,20.70
2018-10-03T03:56:17.355Z,20.80
2018-10-03T03:57:22.666Z,20.80
2018-10-03T03:58:28.002Z,20.70
2018-10-03T03:59:33.413Z,20.80
2018-10-03T04:00:38.713Z,20.80
2018-10-03T04:01:44.058Z,20.70
2018-10-03T04:02:49.346Z,20.80
2018-10-03T04:03:54.617Z,20.70
2018-10-03T04:04:59.930Z,20.70
2018-10-03T04:06:05.470Z,20.70
2018-10-03T04:07:11.639Z,20.80
2018-10-03T04:08:17.131Z,20.70
2018-10-03T04:09:23.322Z,20.70
2018-10-03T04:10:28.865Z,20.70
2018-10-03T04:11:34.136Z,20.80
2018-10-03T04:12:39.548Z,20.80
2018-10-03T04:13:44.861Z,20.70
2018-10-03T04:14:50.207Z,20.70
2018-10-03T04:15:55.437Z,20.70
2018-10-03T04:17:01.739Z,20.70
2018-10-03T04:18:06.998Z,20.70
2018-10-03T04:19:12.395Z,20.70
2018-10-03T04:20:17.793Z,20.70
2018-10-03T04:21:23.958Z,20.70
2018-10-03T04:22:30.138Z,20.70
2018-10-03T04:23:35.595Z,20.70
2018-10-03T04:24:41.845Z,20.70
2018-10-03T04:25:48.018Z,20.70
2018-10-03T04:26:53.382Z,20.70
2018-10-03T04:27:58.689Z,20.70
2018-10-03T04:29:03.967Z,20.70
2018-10-03T04:30:09.321Z,20.70
2018-10-03T04:31:14.570Z,20.70
2018-10-03T04:32:19.876Z,20.70
2018-10-03T04:33:25.247Z,20.70
2018-10-03T04:34:30.645Z,20.70
2018-10-03T04:35:35.968Z,20.70
2018-10-03T04:36:41.205Z,20.70
2018-10-03T04:37:46.496Z,20.70
2018-10-03T04:38:51.956Z,20.70
2018-10-03T04:39:57.353Z,20.70
2018-10-03T04:41:03.564Z,20.70
2018-10-03T04:42:08.988Z,20.70
2018-10-03T04:43:15.123Z,20.70
2018-10-03T04:44:21.324Z,20.70
2018-10-03T04:45:26.685Z,20.70
2018-10-03T04:46:32.060Z,20.70
2018-10-03T04:47:38.244Z,20.80
2018-10-03T04:48:43.565Z,20.70
2018-10-03T04:49:48.838Z,20.70
2018-10-03T04:50:55.010Z,20.70
2018-10-03T04:52:00.425Z,20.70
2018-10-03T04:53:05.693Z,20.70
2018-10-03T04:54:10.951Z,20.70
2018-10-03T04:55:16.300Z,20.70
2018-10-03T04:56:21.636Z,20.70
2018-10-03T04:57:27.755Z,20.70
2018-10-03T04:58:33.026Z,20.80
2018-10-03T04:59:38.305Z,20.70
2018-10-03T05:00:43.549Z,20.70
2018-10-03T05:01:49.692Z,20.70
2018-10-03T05:02:54.976Z,20.70
2018-10-03T05:04:01.821Z,20.70
2018-10-03T05:05:07.180Z,20.70
2018-10-03T05:06:13.374Z,20.70
2018-10-03T05:07:19.522Z,20.70
2018-10-03T05:08:24.822Z,20.70
2018-10-03T05:09:30.055Z,20.70
2018-10-03T05:10:35.296Z,20.80
2018-10-03T05:11:40.726Z,20.70
2018-10-03T05:12:45.992Z,20.70
2018-10-03T05:13:51.462Z,20.70
2018-10-03T05:14:56.855Z,20.70
2018-10-03T05:16:02.182Z,20.70
2018-10-03T05:17:07.442Z,20.70
2018-10-03T05:18:12.794Z,20.70
2018-10-03T05:19:18.056Z,20.70
2018-10-03T05:20:24.200Z,20.70
2018-10-03T05:21:29.820Z,20.70
2018-10-03T05:22:35.245Z,20.70
2018-10-03T05:23:41.421Z,20.70
2018-10-03T05:24:46.717Z,20.70
2018-10-03T05:25:52.037Z,20.70
2018-10-03T05:26:57.435Z,20.70
2018-10-03T05:28:03.023Z,20.70
2018-10-03T05:29:08.271Z,20.70
2018-10-03T05:30:13.666Z,20.70
2018-10-03T05:31:18.956Z,20.70
2018-10-03T05:32:24.415Z,20.70
2018-10-03T05:33:29.786Z,20.70
2018-10-03T05:34:35.889Z,20.70
2018-10-03T05:35:42.030Z,20.70
2018-10-03T05:36:47.408Z,20.60
2018-10-03T05:37:53.616Z,20.60
2018-10-03T05:38:58.877Z,20.60
2018-10-03T05:40:04.188Z,20.60
2018-10-03T05:41:09.629Z,20.60
2018-10-03T05:42:15.713Z,20.50
2018-10-03T05:43:20.989Z,20.50
2018-10-03T05:44:27.151Z,20.60
2018-10-03T05:45:32.444Z,20.50
2018-10-03T05:46:37.692Z,20.50
2018-10-03T05:47:43.849Z,20.50
2018-10-03T05:48:49.433Z,20.50
2018-10-03T05:49:54.795Z,20.50
2018-10-03T05:51:00.194Z,20.50
2018-10-03T05:52:05.625Z,20.50
2018-10-03T05:53:11.815Z,20.50
2018-10-03T05:54:17.099Z,20.40
2018-10-03T05:55:23.232Z,20.40
2018-10-03T05:56:28.550Z,20.40
2018-10-03T05:57:33.857Z,20.40
2018-10-03T05:58:39.193Z,20.40
2018-10-03T05:59:44.606Z,20.40
2018-10-03T06:00:50.020Z,20.30
2018-10-03T06:01:55.512Z,20.30
2018-10-03T06:03:00.783Z,20.30
2018-10-03T06:04:06.057Z,20.30
2018-10-03T06:05:11.382Z,20.30
2018-10-03T06:06:16.735Z,20.30
2018-10-03T06:07:22.848Z,20.20
2018-10-03T06:08:28.117Z,20.20
2018-10-03T06:09:33.639Z,20.30
2018-10-03T06:10:38.980Z,20.20
2018-10-03T06:11:44.319Z,20.20
2018-10-03T06:12:49.644Z,20.20
2018-10-03T06:13:55.866Z,20.20
2018-10-03T06:15:01.209Z,20.20
2018-10-03T06:16:07.368Z,20.20
2018-10-03T06:17:12.654Z,20.10
2018-10-03T06:18:18.003Z,20.10
2018-10-03T06:19:24.205Z,20.10
2018-10-03T06:20:30.394Z,20.10
2018-10-03T06:21:35.723Z,20.10
2018-10-03T06:22:41.094Z,20.10
2018-10-03T06:23:46.404Z,20.10
2018-10-03T06:24:51.734Z,20.10
2018-10-03T06:25:57.141Z,20.10
2018-10-03T06:27:02.436Z,20.00
2018-10-03T06:28:07.842Z,20.10
2018-10-03T06:29:13.140Z,20.10
2018-10-03T06:30:19.315Z,20.10
2018-10-03T06:31:25.456Z,20.10
2018-10-03T06:32:30.798Z,20.00
2018-10-03T06:33:36.166Z,20.00
2018-10-03T06:34:41.460Z,20.10
2018-10-03T06:35:46.854Z,20.10
2018-10-03T06:36:52.330Z,20.00
2018-10-03T06:37:58.032Z,20.00
2018-10-03T06:39:03.485Z,20.00
2018-10-03T06:40:09.655Z,20.10
2018-10-03T06:41:14.985Z,20.10
2018-10-03T06:42:21.243Z,20.10
2018-10-03T06:43:26.874Z,20.10
2018-10-03T06:44:32.119Z,20.10
2018-10-03T06:45:37.907Z,20.10
2018-10-03T06:46:43.136Z,20.10
2018-10-03T06:47:48.436Z,20.10
2018-10-03T06:48:53.703Z,20.00
2018-10-03T06:49:59.130Z,20.10
2018-10-03T06:51:04.431Z,20.00
2018-10-03T06:52:10.610Z,20.10
2018-10-03T06:53:17.243Z,20.00
2018-10-03T06:54:22.802Z,20.10
2018-10-03T06:55:28.191Z,20.00
2018-10-03T06:56:33.457Z,20.00
2018-10-03T06:57:38.770Z,20.00
2018-10-03T06:58:44.123Z,20.10
2018-10-03T06:59:49.413Z,20.00
2018-10-03T07:00:54.721Z,20.10
2018-10-03T07:02:00.052Z,20.00
2018-10-03T07:03:06.200Z,20.00
2018-10-03T07:04:12.380Z,20.00
2018-10-03T07:05:18.746Z,20.00
2018-10-03T07:06:24.967Z,20.00
2018-10-03T07:07:30.295Z,20.00
2018-10-03T07:08:35.630Z,20.00
2018-10-03T07:09:41.080Z,20.00
2018-10-03T07:10:46.396Z,20.00
2018-10-03T07:11:52.542Z,20.00
2018-10-03T07:12:58.132Z,20.00
2018-10-03T07:14:04.584Z,20.00
2018-10-03T07:15:09.868Z,20.00
2018-10-03T07:16:15.101Z,20.00
2018-10-03T07:17:20.377Z,19.90
2018-10-03T07:18:25.762Z,19.90
2018-10-03T07:19:31.992Z,19.90
2018-10-03T07:20:38.167Z,19.90
2018-10-03T07:21:43.450Z,19.90
2018-10-03T07:22:48.788Z,19.90
2018-10-03T07:23:54.962Z,19.90
2018-10-03T07:25:00.305Z,19.90
2018-10-03T07:26:06.490Z,19.90
2018-10-03T07:27:12.629Z,19.90
2018-10-03T07:28:17.911Z,19.90
2018-10-03T07:29:23.165Z,20.00
2018-10-03T07:30:28.433Z,20.00
2018-10-03T07:31:34.397Z,20.00
2018-10-03T07:32:39.751Z,20.00
2018-10-03T07:33:45.318Z,20.00
2018-10-03T07:34:51.487Z,20.00
2018-10-03T07:35:57.718Z,20.10
2018-10-03T07:37:04.027Z,20.10
2018-10-03T07:38:10.201Z,20.10
2018-10-03T07:39:15.560Z,20.10
2018-10-03T07:40:21.389Z,20.10
2018-10-03T07:41:27.681Z,20.10
2018-10-03T07:42:33.885Z,20.20
2018-10-03T07:43:40.522Z,20.20
2018-10-03T07:44:46.093Z,20.10
2018-10-03T07:45:51.479Z,20.20
2018-10-03T07:46:57.119Z,20.20
2018-10-03T07:48:02.763Z,20.20
2018-10-03T07:49:08.231Z,20.20
2018-10-03T07:50:13.709Z,20.20
2018-10-03T07:51:19.492Z,20.20
2018-10-03T07:52:24.865Z,20.20
2018-10-03T07:53:30.306Z,20.20
2018-10-03T07:54:35.627Z,20.20
2018-10-03T07:55:40.985Z,20.30
2018-10-03T07:56:46.313Z,20.30
2018-10-03T07:57:52.463Z,20.30
2018-10-03T07:58:58.052Z,20.30
2018-10-03T08:00:03.560Z,20.30
2018-10-03T08:01:08.899Z,20.30
2018-10-03T08:02:14.403Z,20.30
2018-10-03T08:03:19.851Z,20.30
2018-10-03T08:04:26.024Z,20.30
2018-10-03T08:05:31.425Z,20.30
2018-10-03T08:06:36.876Z,20.30
2018-10-03T08:07:42.302Z,20.30
2018-10-03T08:08:47.662Z,20.30
2018-10-03T08:09:53.914Z,20.30
2018-10-03T08:11:00.207Z,20.30
2018-10-03T08:12:06.382Z,20.30
2018-10-03T08:13:12.663Z,20.30
2018-10-03T08:14:18.877Z,20.30
2018-10-03T08:15:24.343Z,20.20
2018-10-03T08:16:30.620Z,20.30
2018-10-03T08:17:35.965Z,20.20
2018-10-03T08:18:41.461Z,20.20
2018-10-03T08:19:47.613Z,20.20
2018-10-03T08:20:52.901Z,20.30
2018-10-03T08:21:58.400Z,20.30
2018-10-03T08:23:03.742Z,20.30
2018-10-03T08:24:09.919Z,20.30
2018-10-03T08:25:15.267Z,20.20
2018-10-03T08:26:21.640Z,20.30
2018-10-03T08:27:27.120Z,20.30
2018-10-03T08:28:32.601Z,20.20
2018-10-03T08:29:38.013Z,20.30
2018-10-03T08:30:43.796Z,20.30
2018-10-03T08:31:50.030Z,20.30
2018-10-03T08:32:55.726Z,20.30
2018-10-03T08:34:01.314Z,20.20
2018-10-03T08:35:06.679Z,20.20
2018-10-03T08:36:12.068Z,20.20
2018-10-03T08:37:17.483Z,20.20
2018-10-03T08:38:24.014Z,20.20
2018-10-03T08:39:29.499Z,20.20
2018-10-03T08:40:35.262Z,20.20
2018-10-03T08:41:40.672Z,20.10
2018-10-03T08:42:45.993Z,20.10
2018-10-03T08:43:51.482Z,20.20
2018-10-03T08:44:56.979Z,20.20
2018-10-03T08:46:02.351Z,20.10
2018-10-03T08:47:07.678Z,20.10
2018-10-03T08:48:13.482Z,20.10
2018-10-03T08:49:18.815Z,20.10
2018-10-03T08:50:24.165Z,20.10
2018-10-03T08:51:29.540Z,20.10
2018-10-03T08:52:35.021Z,20.10
2018-10-03T08:53:40.515Z,20.10
2018-10-03T08:54:46.065Z,20.10
2018-10-03T08:55:51.646Z,20.00
2018-10-03T08:56:57.379Z,20.00
2018-10-03T08:58:03.723Z,20.00
2018-10-03T08:59:09.486Z,20.10
2018-10-03T09:00:15.761Z,20.00
2018-10-03T09:01:22.094Z,20.00
2018-10-03T09:02:27.711Z,20.10
2018-10-03T09:03:33.477Z,20.10
2018-10-03T09:04:39.089Z,20.00
2018-10-03T09:05:44.504Z,20.00
2018-10-03T09:06:49.949Z,20.00
2018-10-03T09:07:55.326Z,20.00
2018-10-03T09:09:00.906Z,20.00
2018-10-03T09:10:06.547Z,20.00
2018-10-03T09:11:12.161Z,20.00
2018-10-03T09:12:17.917Z,20.00
2018-10-03T09:13:23.441Z,20.10
2018-10-03T09:14:29.762Z,20.10
2018-10-03T09:15:35.210Z,20.10
2018-10-03T09:16:41.506Z,20.20
2018-10-03T09:17:47.781Z,20.20
2018-10-03T09:18:53.333Z,20.20
2018-10-03T09:19:58.768Z,20.20
2018-10-03T09:21:04.226Z,20.20
2018-10-03T09:22:09.699Z,20.20
2018-10-03T09:23:15.153Z,20.20
2018-10-03T09:24:20.509Z,20.20
2018-10-03T09:25:25.923Z,20.20
2018-10-03T09:26:31.517Z,20.20
2018-10-03T09:27:36.991Z,20.20
2018-10-03T09:28:43.354Z,20.20
2018-10-03T09:29:48.780Z,20.20
2018-10-03T09:30:54.235Z,20.20
2018-10-03T09:31:59.684Z,20.20
2018-10-03T09:33:05.992Z,20.30
2018-10-03T09:34:12.239Z,20.30
2018-10-03T09:35:18.593Z,20.20
2018-10-03T09:36:24.163Z,20.30
2018-10-03T09:37:29.728Z,20.30
2018-10-03T09:38:35.206Z,20.30
2018-10-03T09:39:40.795Z,20.30
2018-10-03T09:40:46.307Z,20.30
2018-10-03T09:41:51.753Z,20.30
2018-10-03T09:42:57.186Z,20.30
2018-10-03T09:44:02.622Z,20.20
2018-10-03T09:45:08.056Z,20.20
2018-10-03T09:46:14.293Z,20.20
2018-10-03T09:47:19.652Z,20.20
2018-10-03T09:48:25.359Z,20.20
2018-10-03T09:49:30.846Z,20.20
2018-10-03T09:50:37.154Z,20.20
2018-10-03T09:51:42.619Z,20.20
2018-10-03T09:52:48.878Z,20.20
2018-10-03T09:53:54.280Z,20.10
2018-10-03T09:54:59.590Z,20.10
2018-10-03T09:56:04.977Z,20.10
2018-10-03T09:57:10.465Z,20.10
2018-10-03T09:58:15.895Z,20.10
2018-10-03T09:59:21.393Z,20.10
2018-10-03T10:00:26.921Z,20.10
2018-10-03T10:01:32.361Z,20.10
2018-10-03T10:02:37.717Z,20.10
2018-10-03T10:03:43.216Z,20.10
2018-10-03T10:04:48.575Z,20.00
2018-10-03T10:05:54.931Z,20.00
2018-10-03T10:07:00.515Z,20.00
2018-10-03T10:08:05.902Z,20.00
2018-10-03T10:09:11.406Z,20.00
2018-10-03T10:10:16.951Z,20.00
2018-10-03T10:11:22.296Z,20.00
2018-10-03T10:12:27.597Z,20.00
2018-10-03T10:13:33.093Z,20.00
2018-10-03T10:14:38.433Z,20.00
2018-10-03T10:15:44.166Z,20.00
2018-10-03T10:16:49.693Z,20.00
2018-10-03T10:17:55.826Z,20.00
2018-10-03T10:19:02.063Z,20.00
2018-10-03T10:20:07.424Z,20.00
2018-10-03T10:21:13.556Z,20.00
2018-10-03T10:22:18.965Z,20.00
2018-10-03T10:23:25.206Z,20.00
2018-10-03T10:24:30.593Z,20.00
2018-10-03T10:25:36.813Z,20.00
2018-10-03T10:26:42.267Z,20.00
2018-10-03T10:27:48.608Z,20.00
2018-10-03T10:28:54.008Z,20.00
2018-10-03T10:29:59.440Z,20.00
2018-10-03T10:31:05.677Z,20.00
2018-10-03T10:32:11.268Z,20.00
2018-10-03T10:33:17.521Z,20.00
2018-10-03T10:34:23.846Z,20.00
2018-10-03T10:35:29.519Z,20.00
2018-10-03T10:36:35.789Z,20.00
2018-10-03T10:37:41.599Z,20.00
2018-10-03T10:38:47.372Z,20.00
2018-10-03T10:39:52.865Z,20.00
2018-10-03T10:40:58.756Z,20.00
2018-10-03T10:42:04.144Z,20.00
2018-10-03T10:43:11.212Z,20.00
2018-10-03T10:44:16.729Z,20.00
2018-10-03T10:45:22.441Z,20.10
2018-10-03T10:46:28.199Z,20.10
2018-10-03T10:47:33.761Z,20.10
2018-10-03T10:48:40.362Z,20.10
2018-10-03T10:49:45.780Z,20.10
2018-10-03T10:50:52.092Z,20.10
2018-10-03T10:51:57.456Z,20.10
2018-10-03T10:53:03.061Z,20.00
2018-10-03T10:54:08.674Z,20.00
2018-10-03T10:55:14.978Z,20.10
2018-10-03T10:56:21.310Z,20.10
2018-10-03T10:57:26.744Z,20.10
2018-10-03T10:58:32.364Z,20.10
2018-10-03T10:59:38.207Z,20.00
2018-10-03T11:00:43.693Z,20.00
2018-10-03T11:01:49.148Z,20.00
2018-10-03T11:02:54.553Z,20.00
2018-10-03T11:04:00.139Z,20.00
2018-10-03T11:05:05.790Z,20.00
2018-10-03T11:06:11.461Z,20.00
2018-10-03T11:07:17.043Z,20.00
2018-10-03T11:08:22.591Z,20.00
2018-10-03T11:09:28.026Z,20.00
2018-10-03T11:10:33.482Z,20.00
2018-10-03T11:11:39.119Z,20.10
2018-10-03T11:12:44.874Z,20.10
2018-10-03T11:13:50.203Z,20.00
2018-10-03T11:14:55.622Z,20.00
2018-10-03T11:16:00.990Z,20.00
2018-10-03T11:17:06.654Z,20.00
2018-10-03T11:18:12.952Z,20.00
2018-10-03T11:19:19.216Z,20.00
2018-10-03T11:20:24.651Z,20.00
2018-10-03T11:21:30.173Z,20.00
2018-10-03T11:22:36.597Z,20.00
2018-10-03T11:23:42.304Z,20.00
2018-10-03T11:24:48.616Z,20.00
2018-10-03T11:25:53.877Z,20.10
2018-10-03T11:26:59.244Z,20.10
2018-10-03T11:28:05.421Z,20.10
2018-10-03T11:29:10.937Z,20.10
2018-10-03T11:30:16.347Z,20.10
2018-10-03T11:31:21.843Z,20.10
2018-10-03T11:32:28.139Z,20.00
2018-10-03T11:33:34.496Z,20.00
2018-10-03T11:34:39.928Z,20.00
2018-10-03T11:35:45.313Z,20.00
2018-10-03T11:36:50.649Z,20.00
2018-10-03T11:37:56.003Z,20.00
2018-10-03T11:39:01.412Z,20.00
2018-10-03T11:40:06.844Z,20.00
2018-10-03T11:41:12.205Z,20.00
2018-10-03T11:42:17.623Z,20.00
2018-10-03T11:43:23.221Z,20.00
2018-10-03T11:44:29.863Z,20.00
2018-10-03T11:45:35.194Z,20.00
2018-10-03T11:46:40.669Z,20.00
2018-10-03T11:47:46.204Z,20.00
2018-10-03T11:48:52.472Z,20.00
2018-10-03T11:49:57.969Z,20.00
2018-10-03T11:51:04.348Z,20.00
2018-10-03T11:52:09.696Z,20.00
2018-10-03T11:53:16.079Z,20.00
2018-10-03T11:54:21.485Z,20.00
2018-10-03T11:55:27.169Z,20.00
2018-10-03T11:56:33.446Z,20.00
2018-10-03T11:57:38.784Z,20.00
2018-10-03T11:58:44.246Z,20.00
2018-10-03T11:59:49.786Z,20.00
2018-10-03T12:00:56.041Z,20.00
2018-10-03T12:02:01.701Z,20.00
2018-10-03T12:03:07.157Z,20.00
2018-10-03T12:04:12.622Z,20.00
2018-10-03T12:05:17.960Z,20.00
2018-10-03T12:06:24.930Z,20.00
2018-10-03T12:07:30.320Z,20.00
2018-10-03T12:08:35.784Z,20.00
2018-10-03T12:09:41.208Z,20.00
2018-10-03T12:10:46.694Z,20.00
2018-10-03T12:11:52.987Z,20.00
2018-10-03T12:12:58.394Z,20.00
2018-10-03T12:14:03.792Z,20.00
2018-10-03T12:15:09.187Z,20.10
2018-10-03T12:16:14.787Z,20.10
2018-10-03T12:17:21.019Z,20.00
2018-10-03T12:18:26.458Z,20.00
2018-10-03T12:19:31.813Z,20.00
2018-10-03T12:20:38.048Z,20.00
2018-10-03T12:21:43.859Z,20.00
2018-10-03T12:22:49.430Z,20.00
2018-10-03T12:23:54.795Z,20.00
2018-10-03T12:25:00.152Z,20.00
2018-10-03T12:26:05.739Z,20.00
2018-10-03T12:27:11.241Z,20.00
2018-10-03T12:28:16.814Z,20.00
2018-10-03T12:29:22.479Z,20.00
2018-10-03T12:30:27.888Z,20.00
2018-10-03T12:31:33.412Z,20.00
2018-10-03T12:32:38.822Z,20.00
2018-10-03T12:33:44.387Z,20.00
2018-10-03T12:34:49.754Z,20.00
2018-10-03T12:35:55.293Z,20.00
2018-10-03T12:37:01.651Z,20.00
2018-10-03T12:38:07.646Z,20.00
2018-10-03T12:39:13.232Z,19.90
2018-10-03T12:40:18.617Z,20.00
2018-10-03T12:41:23.993Z,20.00
2018-10-03T12:42:29.329Z,20.00
2018-10-03T12:43:34.943Z,20.00
2018-10-03T12:44:40.610Z,20.00
2018-10-03T12:45:46.943Z,20.00
2018-10-03T12:46:53.298Z,20.00
2018-10-03T12:47:58.768Z,20.00
2018-10-03T12:49:04.407Z,20.10
2018-10-03T12:50:09.916Z,20.10
2018-10-03T12:51:16.177Z,20.10
2018-10-03T12:52:21.573Z,20.00
2018-10-03T12:53:27.063Z,20.10
2018-10-03T12:54:32.475Z,20.10
2018-10-03T12:55:37.812Z,20.10
2018-10-03T12:56:44.143Z,20.10
2018-10-03T12:57:49.758Z,20.10
2018-10-03T12:58:55.070Z,20.10
2018-10-03T13:00:00.555Z,20.10
2018-10-03T13:01:06.040Z,20.00
2018-10-03T13:02:11.391Z,20.10
2018-10-03T13:03:17.637Z,20.10
2018-10-03T13:04:23.184Z,20.10
2018-10-03T13:05:28.680Z,20.10
2018-10-03T13:06:34.084Z,20.10
2018-10-03T13:07:39.431Z,20.00
2018-10-03T13:08:45.718Z,20.10
2018-10-03T13:09:51.171Z,20.10
2018-10-03T13:10:57.409Z,20.00
2018-10-03T13:12:03.653Z,20.10
2018-10-03T13:13:09.339Z,20.10
2018-10-03T13:14:14.800Z,20.00
2018-10-03T13:15:20.642Z,20.00
2018-10-03T13:16:26.900Z,20.10
2018-10-03T13:17:32.366Z,20.10
2018-10-03T13:18:37.862Z,20.10
2018-10-03T13:19:44.125Z,20.10
2018-10-03T13:20:49.747Z,20.10
2018-10-03T13:21:56.022Z,20.10
2018-10-03T13:23:01.415Z,20.10
2018-10-03T13:24:07.002Z,20.10
2018-10-03T13:25:12.425Z,20.10
2018-10-03T13:26:17.974Z,20.10
2018-10-03T13:27:23.438Z,20.10
2018-10-03T13:28:28.872Z,20.10
2018-10-03T13:29:34.352Z,20.10
2018-10-03T13:30:39.870Z,20.10
2018-10-03T13:31:46.084Z,20.10
2018-10-03T13:32:51.488Z,20.10
2018-10-03T13:33:56.911Z,20.10
2018-10-03T13:35:02.341Z,20.10
2018-10-03T13:36:07.715Z,20.10
2018-10-03T13:37:13.183Z,20.10
2018-10-03T13:38:18.535Z,20.10
2018-10-03T13:39:24.761Z,20.10
2018-10-03T13:40:31.031Z,20.10
2018-10-03T13:41:36.765Z,20.10
2018-10-03T13:42:43.004Z,20.10
2018-10-03T13:43:48.439Z,20.10
2018-10-03T13:44:53.848Z,20.10
2018-10-03T13:45:59.398Z,20.10
2018-10-03T13:47:05.683Z,20.10
2018-10-03T13:48:11.991Z,20.10
2018-10-03T13:49:17.540Z,20.10
2018-10-03T13:50:23.597Z,20.10
2018-10-03T13:51:29.132Z,20.10
2018-10-03T13:52:34.514Z,20.10
2018-10-03T13:53:39.925Z,20.10
2018-10-03T13:54:46.242Z,20.10
2018-10-03T13:55:52.107Z,20.10
2018-10-03T13:56:57.898Z,20.10
2018-10-03T13:58:03.516Z,20.10
2018-10-03T13:59:08.962Z,20.10
2018-10-03T14:00:14.540Z,20.10
2018-10-03T14:01:19.933Z,20.10
2018-10-03T14:02:26.167Z,20.10
2018-10-03T14:03:31.772Z,20.10
2018-10-03T14:04:37.332Z,20.10